Flight Track Log - Related Links

Times and Time Zones

All times are in EST time to prevent confusion due to time zone crossing. See the N555CP flight status page for this flight to view local times or setup timezone preferences in your user account.

Time Position Orientation Groundspeed Altitude Reporting Facility
EST Latitude Longitude Course Direction KTS MPH feet Rate Location/Type
Mon 12:09:17 PM 45.2222 -122.7733 196° South 106 122 1,100  Level Seattle Center
Mon 12:09:42 PM 45.2122 -122.7775 196° South 105 121 1,700 1,129 Climbing Seattle Center
Mon 12:10:42 PM 45.1853 -122.7944 204° Southwest 104 120 2,700 1,000 Climbing Seattle Center
Mon 12:10:54 PM 45.1817 -122.7997 226° Southwest 104 120 2,900 822 Climbing Seattle Center
Mon 12:11:55 PM 45.1489 -122.8122 195° South 114 131 3,700 836 Climbing Seattle Center
Mon 12:12:56 PM 45.1189 -122.8269 199° South 119 137 4,600 836 Climbing Seattle Center
Mon 12:13:57 PM 45.0842 -122.8142 165° South 131 151 5,400 689 Climbing Seattle Center
Mon 12:14:58 PM 45.0450 -122.8000 166° South 141 162 6,000 689 Climbing Seattle Center
Mon 12:15:59 PM 45.0064 -122.7842 164° South 143 165 6,800 793 Climbing Seattle Center
Mon 12:16:59 PM 44.9672 -122.7697 165° South 146 168 7,600 793 Climbing Seattle Center
Mon 12:18:00 PM 44.9261 -122.7533 164° South 151 174 8,400 738 Climbing Seattle Center
Mon 12:19:01 PM 44.8844 -122.7372 165° South 155 178 9,100 689 Climbing Seattle Center
Mon 12:20:02 PM 44.8406 -122.7200 164° South 160 184 9,800 836 Climbing Seattle Center
Mon 12:21:03 PM 44.7883 -122.6983 164° South 163 188 10,800 836 Climbing Seattle Center
Mon 12:22:04 PM 44.7433 -122.6819 165° South 165 190 11,500 689 Climbing Seattle Center
Mon 12:23:05 PM 44.6978 -122.6617 162° South 170 196 12,200 689 Climbing Seattle Center
Mon 12:24:06 PM 44.6528 -122.6472 167° South 167 192 12,900 689 Climbing Seattle Center
Mon 12:25:07 PM 44.6069 -122.6267 162° South 170 196 13,600 694 Climbing Seattle Center
Mon 12:26:07 PM 44.5614 -122.6117 167° South 171 197 14,300 694 Climbing Seattle Center
Mon 12:27:08 PM 44.5169 -122.5936 164° South 168 193 15,000 590 Climbing Seattle Center
Mon 12:28:09 PM 44.4717 -122.5769 165° South 168 193 15,500 443 Climbing Seattle Center
Mon 12:29:10 PM 44.4258 -122.5583 164° South 171 197 15,900 344 Climbing Seattle Center
Mon 12:30:11 PM 44.3806 -122.5400 164° South 170 196 16,200 344 Climbing Seattle Center
Mon 12:31:12 PM 44.3322 -122.5211 164° South 166 191 16,600 393 Climbing Seattle Center
Mon 12:32:13 PM 44.2864 -122.5042 165° South 167 192 17,000 443 Climbing Seattle Center
Mon 12:33:14 PM 44.2403 -122.4850 163° South 169 194 17,500 443 Climbing Seattle Center
Mon 12:34:15 PM 44.1953 -122.4697 166° South 164 189 17,900 246 Climbing Seattle Center
Mon 12:35:16 PM 44.1478 -122.4511 164° South 167 192 18,000 197 Climbing Seattle Center
Mon 12:36:17 PM 44.1033 -122.4358 166° South 165 190 18,300 295 Climbing Seattle Center
Mon 12:37:18 PM 44.0592 -122.4175 163° South 165 190 18,600 344 Climbing Seattle Center
Mon 12:38:19 PM 44.0136 -122.4014 166° South 166 191 19,000 197 Climbing Seattle Center
Mon 12:39:20 PM 43.9644 -122.3853 167° South 176 203 19,000  Level Seattle Center
Mon 12:40:21 PM 43.9136 -122.3650 164° South 186 214 19,000  Level Seattle Center
Mon 12:41:22 PM 43.8608 -122.3456 165° South 194 223 19,000  Level Seattle Center
Mon 12:42:23 PM 43.8083 -122.3242 164° South 196 226 19,000  Level Seattle Center
Mon 12:43:24 PM 43.7522 -122.3069 167° South 202 232 19,000  Level Seattle Center
Mon 12:44:25 PM 43.6981 -122.2878 166° South 202 232 19,000  Level Seattle Center
Mon 12:45:26 PM 43.6431 -122.2678 165° South 203 234 19,000  Level Seattle Center
Mon 12:46:27 PM 43.5872 -122.2453 164° South 207 238 19,000  Level Seattle Center
Mon 12:47:28 PM 43.5325 -122.2244 165° South 205 236 19,000  Level Seattle Center
Mon 12:48:29 PM 43.4753 -122.2047 166° South 209 241 19,000  Level Seattle Center
Mon 12:49:29 PM 43.4186 -122.1828 164° South 210 242 19,000  Level Seattle Center
Mon 12:50:30 PM 43.3633 -122.1628 165° South 208 239 19,000  Level Seattle Center
Mon 12:51:31 PM 43.2958 -122.1392 166° South 208 239 19,000  Level Seattle Center
Mon 12:52:32 PM 43.2428 -122.1172 163° South 211 243 19,000  Level Seattle Center
Mon 12:53:33 PM 43.1856 -122.0969 166° South 212 244 19,000  Level Seattle Center
Mon 12:54:34 PM 43.1286 -122.0758 165° South 213 245 19,000  Level Seattle Center
Mon 12:55:35 PM 43.0742 -122.0553 165° South 206 237 19,000  Level Seattle Center
Mon 12:56:36 PM 43.0192 -122.0369 166° South 204 235 19,000  Level Seattle Center
Mon 12:57:37 PM 42.9614 -122.0169 166° South 211 243 19,000  Level Seattle Center
Mon 12:58:38 PM 42.9036 -121.9956 165° South 215 247 19,000  Level Seattle Center
Mon 12:59:39 PM 42.8467 -121.9742 165° South 214 246 19,000  Level Seattle Center
Mon 01:00:40 PM 42.7881 -121.9547 166° South 216 249 19,000  Level Seattle Center
Mon 01:01:41 PM 42.7178 -121.9297 165° South 217 250 19,000  Level Seattle Center
Mon 01:02:42 PM 42.6583 -121.9081 165° South 221 254 19,000  Level Seattle Center
Mon 01:03:43 PM 42.5992 -121.8872 165° South 221 254 19,000  Level Seattle Center
Mon 01:04:44 PM 42.5397 -121.8658 165° South 220 253 19,000  Level Seattle Center
Mon 01:05:45 PM 42.4811 -121.8447 165° South 219 252 19,000  Level Seattle Center
Mon 01:06:46 PM 42.4231 -121.8236 165° South 217 250 19,000  Level Seattle Center
Mon 01:07:46 PM 42.3633 -121.8028 166° South 220 253 19,000  Level Seattle Center
Mon 01:08:47 PM 42.3044 -121.7822 166° South 219 252 19,000  Level Seattle Center
Mon 01:09:48 PM 42.2458 -121.7611 165° South 217 250 19,000  Level Seattle Center
Mon 01:10:49 PM 42.1867 -121.7397 165° South 217 250 19,000  Level Seattle Center
Mon 01:11:50 PM 42.1286 -121.7111 160° South 220 253 19,000  Level Seattle Center
Mon 01:12:51 PM 42.0747 -121.6678 149° Southeast 222 255 19,000  Level Seattle Center
Mon 01:13:52 PM 42.0203 -121.6256 150° Southeast 224 258 19,000  Level Seattle Center
Mon 01:14:53 PM 41.9658 -121.5833 150° Southeast 224 258 19,000  Level Seattle Center
Mon 01:15:54 PM 41.9111 -121.5406 150° Southeast 226 260 19,000  Level Seattle Center
Mon 01:16:55 PM 41.8564 -121.4989 150° Southeast 226 260 19,000 49 Level Seattle Center
Mon 01:17:56 PM 41.7914 -121.4486 150° Southeast 225 259 19,100  Climbing Seattle Center
Mon 01:18:57 PM 41.7372 -121.4058 149° Southeast 226 260 19,000 -49 Descending Seattle Center
Mon 01:19:58 PM 41.6836 -121.3633 149° Southeast 225 259 19,000  Level Seattle Center
Mon 01:20:59 PM 41.6292 -121.3228 151° Southeast 224 258 19,000  Level Seattle Center
Mon 01:22:00 PM 41.5753 -121.2819 150° Southeast 223 257 19,000  Level Seattle Center
Mon 01:23:01 PM 41.5217 -121.2406 150° Southeast 222 255 19,000  Level Seattle Center
Mon 01:24:02 PM 41.4692 -121.2017 151° Southeast 225 259 19,000  Level Seattle Center
Mon 01:25:03 PM 41.4133 -121.1592 150° Southeast 222 255 19,000  Level Seattle Center
Mon 01:26:04 PM 41.3583 -121.1189 151° Southeast 224 258 19,000  Level Seattle Center
Mon 01:27:05 PM 41.3039 -121.0764 150° Southeast 225 259 19,000  Level Seattle Center
Mon 01:28:06 PM 41.2506 -121.0358 150° Southeast 223 257 19,000  Level Seattle Center
Mon 01:29:07 PM 41.1958 -120.9953 151° Southeast 225 259 19,000  Level Seattle Center
Mon 01:30:08 PM 41.1414 -120.9550 151° Southeast 223 257 19,000  Level Seattle Center
Mon 01:31:09 PM 41.0750 -120.9047 150° Southeast 228 262 19,000  Level Seattle Center
Mon 01:32:10 PM 41.0197 -120.8642 151° Southeast 227 261 19,000  Level Seattle Center
Mon 01:33:11 PM 40.9653 -120.8217 149° Southeast 227 261 19,000  Level Seattle Center
Mon 01:34:12 PM 40.9103 -120.7811 151° Southeast 227 261 19,000  Level Seattle Center
Mon 01:35:13 PM 40.8558 -120.7394 150° Southeast 226 260 19,000  Level Seattle Center
Mon 01:36:14 PM 40.8000 -120.7003 152° Southeast 227 261 19,000  Level Seattle Center
Mon 01:37:15 PM 40.7436 -120.6625 153° Southeast 228 262 19,000  Level Seattle Center
Mon 01:38:16 PM 40.6881 -120.6233 152° Southeast 227 261 19,000  Level Seattle Center
Mon 01:39:05 PM 40.6478 -120.5847 144° Southeast 226 260 19,000  Level Oakland Center
Mon 01:40:07 PM 40.5922 -120.5456 152° Southeast 227 261 19,000  Level Oakland Center
Mon 01:41:08 PM 40.5253 -120.4975 151° Southeast 229 264 19,000  Level Oakland Center
Mon 01:42:10 PM 40.4706 -120.4556 150° Southeast 230 265 19,000  Level Oakland Center
Mon 01:43:11 PM 40.4167 -120.4186 152° Southeast 222 255 19,000 -439 Level Oakland Center
Mon 01:44:13 PM 40.3581 -120.3750 150° Southeast 236 272 18,100 -585 Descending Oakland Center
Mon 01:45:14 PM 40.2964 -120.3314 152° Southeast 248 285 17,800 -293 Descending Oakland Center
Mon 01:46:16 PM 40.2372 -120.2889 151° Southeast 246 283 17,500 -339 Descending Oakland Center
Mon 01:47:18 PM 40.1781 -120.2456 151° Southeast 244 281 17,100 -488 Descending Oakland Center
Mon 01:48:19 PM 40.1083 -120.1944 151° Southeast 240 276 16,500 -537 Descending Oakland Center
Mon 01:49:21 PM 40.0514 -120.1528 151° Southeast 237 273 16,000 -244 Descending Oakland Center
Mon 01:50:22 PM 39.9969 -120.1139 151° Southeast 228 262 16,000  Level Oakland Center
Mon 01:51:24 PM 39.9431 -120.0750 151° Southeast 224 258 16,000  Level Oakland Center
Mon 01:52:25 PM 39.8919 -120.0381 151° Southeast 215 247 16,000 -976 Level Oakland Center
Mon 01:53:27 PM 39.8386 -119.9972 150° Southeast 217 250 14,000 -1,366 Descending Oakland Center
Mon 01:54:28 PM 39.7736 -119.9533 153° Southeast 243 280 13,200 -585 Descending Oakland Center
Mon 01:55:30 PM 39.7225 -119.9142 149° Southeast 228 262 12,800 -1,073 Descending Oakland Center
Mon 01:56:31 PM 39.6628 -119.8517 141° Southeast 227 261 11,000 -905 Descending Oakland Center
Mon 01:57:36 PM 39.6167 -119.8000 139° Southeast 200 230 10,900 -528 Descending Northern Cal TRACON
Mon 01:58:36 PM 39.5667 -119.7500 142° Southeast 219 252 9,900 -700 Descending Northern Cal TRACON
Mon 01:59:36 PM 39.5333 -119.7000 131° Southeast 215 247 9,500 -316 Descending Northern Cal TRACON
Mon 02:00:30 PM 39.5000 -119.7000 180° South 197 227 9,300 -526 Descending Northern Cal TRACON
Mon 02:01:30 PM 39.4833 -119.7667 252° West 194 223 8,500 -650 Descending Northern Cal TRACON
Mon 02:02:30 PM 39.5167 -119.7667 360° North 200 230 8,000 -500 Descending Northern Cal TRACON
Mon 02:03:30 PM 39.5667 -119.8000 333° Northwest 166 191 7,500 -350 Descending Northern Cal TRACON
Mon 02:04:30 PM 39.6000 -119.8333 322° Northwest 159 183 7,300 -750 Descending Northern Cal TRACON
Mon 02:05:30 PM 39.6500 -119.8500 346° North 154 177 6,000 -1,300 Descending Northern Cal TRACON

Login

Don't have an account? Register now (free) for customized features, flight alerts, and more!